Time;durP1;ratioP1;P1;durP2;ratioP2;P2;SDS_P1;SDS_P2;PMS_P1;PMS_P2;Temp;Humidity;BMP_temperature;BMP_pressure;BME280_temperature;BME280_humidity;BME280_pressure;Samples;Min_cycle;Max_cycle;Signal;HPM_P1;HPM_P2
2022/09/12 05:35:19;;;;;;;1.00;1.00;;;;;;;24.16;45.50;99136.38;1936518;72;27997;-79
2022/09/12 05:38:08;;;;;;;0.82;0.82;;;;;;;24.54;45.24;99133.06;1913351;73;28080;-80
2022/09/12 05:41:05;;;;;;;0.90;0.90;;;;;;;25.34;44.29;99133.67;1890029;74;28052;-80
2022/09/12 05:43:58;;;;;;;1.50;0.90;;;;;;;26.01;43.30;99132.03;1895231;74;28376;-79
2022/09/12 05:46:49;;;;;;;1.05;0.82;;;;;;;26.57;42.53;99132.34;1890656;75;28083;-84
2022/09/12 05:49:37;;;;;;;1.00;0.80;;;;;;;27.00;41.77;99127.80;1891626;74;32079;-83
2022/09/12 05:52:25;;;;;;;1.65;1.00;;;;;;;27.36;41.07;99128.16;1889511;75;28131;-77
2022/09/12 05:55:13;;;;;;;1.10;0.90;;;;;;;27.66;40.69;99132.03;1904885;74;28135;-79
2022/09/12 05:58:02;;;;;;;1.20;0.80;;;;;;;27.87;40.38;99133.67;1896080;74;28191;-79
2022/09/12 06:00:53;;;;;;;2.05;0.90;;;;;;;28.04;40.08;99143.36;1893521;74;28089;-81
2022/09/12 06:03:46;;;;;;;0.90;0.90;;;;;;;28.22;39.65;99148.84;1878878;75;28165;-78
2022/09/12 06:06:37;;;;;;;0.88;0.85;;;;;;;28.31;39.32;99148.53;1873930;75;28052;-79
2022/09/12 06:09:26;;;;;;;1.70;1.00;;;;;;;28.39;39.08;99151.28;1876101;75;28166;-79
2022/09/12 06:12:15;;;;;;;2.85;1.00;;;;;;;28.49;38.80;99148.49;1882117;75;28110;-79
2022/09/12 06:15:04;;;;;;;0.70;0.70;;;;;;;28.55;38.57;99144.05;1875631;75;28197;-80
2022/09/12 06:17:53;;;;;;;0.82;0.82;;;;;;;28.62;38.34;99143.77;1872575;75;28131;-79
2022/09/12 06:20:42;;;;;;;1.10;1.00;;;;;;;28.64;38.18;99145.14;1871787;74;28188;-80
2022/09/12 06:23:31;;;;;;;0.78;0.70;;;;;;;28.69;38.00;99148.43;1875692;75;28116;-79
2022/09/12 06:26:22;;;;;;;1.37;0.90;;;;;;;28.73;37.90;99148.13;1885089;75;28138;-79
2022/09/12 06:29:10;;;;;;;1.65;0.80;;;;;;;28.73;37.80;99140.67;1878830;75;28548;-82
2022/09/12 06:31:59;;;;;;;0.80;0.80;;;;;;;28.77;37.68;99141.49;1877406;75;28193;-83
2022/09/12 06:34:47;;;;;;;1.50;0.75;;;;;;;28.81;37.55;99139.81;1872501;75;28079;-83
2022/09/12 06:37:36;;;;;;;1.02;0.90;;;;;;;28.82;37.47;99128.48;1886930;74;28037;-84
2022/09/12 06:40:25;;;;;;;1.70;0.80;;;;;;;28.84;37.35;99132.34;1875536;75;28088;-83
2022/09/12 06:43:14;;;;;;;0.90;0.90;;;;;;;28.85;37.25;99139.50;1883318;75;28178;-82
2022/09/12 06:46:06;;;;;;;1.00;0.90;;;;;;;28.86;37.21;99137.02;1880993;75;28157;-83
2022/09/12 06:48:59;;;;;;;0.90;0.90;;;;;;;28.90;37.10;99141.70;1890867;75;28129;-82
2022/09/12 06:51:48;;;;;;;1.65;0.57;;;;;;;28.90;37.05;99133.41;1870597;75;28058;-81
2022/09/12 06:54:37;;;;;;;0.80;0.80;;;;;;;28.91;36.99;99131.47;1884502;75;28248;-78
2022/09/12 06:57:29;;;;;;;0.80;0.78;;;;;;;28.92;36.92;99122.05;1887691;75;28100;-71
2022/09/12 07:00:16;;;;;;;0.70;0.70;;;;;;;28.93;36.84;99123.16;1861965;76;28139;-76
2022/09/12 07:03:06;;;;;;;1.57;0.75;;;;;;;28.93;36.82;99135.61;1878556;75;28122;-72
2022/09/12 07:05:56;;;;;;;0.90;0.90;;;;;;;28.98;36.97;99125.91;1883986;75;28177;-80
2022/09/12 07:08:51;;;;;;;1.10;1.00;;;;;;;29.22;37.63;99119.95;1894815;74;28177;-86
2022/09/12 07:11:44;;;;;;;0.93;0.93;;;;;;;29.35;38.73;99111.02;1865886;75;28231;-84
2022/09/12 07:14:32;;;;;;;0.75;0.72;;;;;;;29.45;39.15;99112.88;1853906;75;28243;-86
2022/09/12 07:17:20;;;;;;;2.33;0.90;;;;;;;29.64;39.21;99124.87;1892421;75;28042;-80
2022/09/12 07:20:09;;;;;;;1.35;0.80;;;;;;;29.76;38.52;99126.74;1879039;75;28583;-84
2022/09/12 07:22:57;;;;;;;1.90;1.10;;;;;;;29.79;37.27;99132.27;1860843;76;28075;-89
2022/09/12 07:25:56;;;;;;;3.10;0.90;;;;;;;29.80;36.73;99133.34;1880597;74;28219;-84
2022/09/12 07:28:45;;;;;;;1.12;0.85;;;;;;;29.80;36.31;99131.95;1870303;75;28238;-79
2022/09/12 07:31:35;;;;;;;2.27;0.60;;;;;;;29.73;35.90;99128.70;1877594;75;28093;-78
2022/09/12 07:34:23;;;;;;;0.80;0.70;;;;;;;29.72;35.67;99123.43;1873084;75;28178;-78
2022/09/12 07:37:12;;;;;;;1.40;0.90;;;;;;;29.68;35.46;99125.97;1867644;75;28177;-82
2022/09/12 07:40:02;;;;;;;1.43;0.80;;;;;;;29.66;35.38;99119.90;1851815;75;28171;-85
2022/09/12 07:42:51;;;;;;;0.88;0.72;;;;;;;29.64;35.41;99115.77;1867958;75;28598;-78
2022/09/12 07:45:44;;;;;;;1.77;0.70;;;;;;;29.63;35.44;99114.10;1867654;75;28145;-84
2022/09/12 07:48:30;;;;;;;2.50;0.80;;;;;;;29.54;35.50;99105.61;1864901;75;28042;-78
2022/09/12 07:51:20;;;;;;;0.50;0.50;;;;;;;29.58;35.52;99116.91;1889344;75;28239;-80
2022/09/12 07:54:10;;;;;;;2.70;0.90;;;;;;;29.53;35.61;99116.40;1874386;75;28121;-80
2022/09/12 07:56:59;;;;;;;3.15;2.05;;;;;;;29.54;35.54;99113.91;1866696;75;28130;-80
2022/09/12 07:59:50;;;;;;;2.83;2.20;;;;;;;29.52;35.50;99112.55;1868579;75;28230;-81
2022/09/12 08:02:40;;;;;;;3.30;2.73;;;;;;;29.50;35.66;99108.66;1869395;74;28257;-78
2022/09/12 08:05:29;;;;;;;3.02;2.30;;;;;;;29.53;35.90;99113.62;1878226;74;28154;-78
2022/09/12 08:08:20;;;;;;;1.95;1.82;;;;;;;29.52;35.80;99108.39;1862080;75;28259;-78
2022/09/12 08:11:15;;;;;;;2.72;1.77;;;;;;;29.51;35.65;99111.71;1873318;75;28108;-78
2022/09/12 08:14:06;;;;;;;2.00;1.77;;;;;;;29.50;35.61;99122.50;1857373;76;28254;-77
2022/09/12 08:16:57;;;;;;;3.10;1.70;;;;;;;29.46;35.64;99115.91;1856297;75;28171;-79
2022/09/12 08:19:47;;;;;;;3.05;1.55;;;;;;;29.43;35.54;99113.70;1857191;77;28174;-80
2022/09/12 08:22:35;;;;;;;1.57;1.47;;;;;;;29.42;35.52;99110.69;1862000;75;28330;-79
2022/09/12 08:25:23;;;;;;;3.83;1.80;;;;;;;29.38;35.53;99110.42;1884607;75;33014;-79
2022/09/12 08:28:11;;;;;;;1.87;1.45;;;;;;;29.38;35.47;99107.66;1874337;75;28128;-79
2022/09/12 08:31:05;;;;;;;1.75;1.65;;;;;;;29.38;35.46;99106.85;1860904;75;28104;-78
2022/09/12 08:34:01;;;;;;;2.23;1.60;;;;;;;29.35;35.44;99108.80;1874613;75;28235;-78
2022/09/12 08:36:49;;;;;;;2.33;1.80;;;;;;;29.35;35.46;99108.80;1866895;75;28170;-79
2022/09/12 08:39:38;;;;;;;1.70;1.60;;;;;;;29.31;35.51;99110.50;1861142;75;32072;-80
2022/09/12 08:42:32;;;;;;;1.80;1.70;;;;;;;29.29;35.46;99103.85;1858835;74;28324;-80
2022/09/12 08:45:31;;;;;;;2.12;1.92;;;;;;;29.28;35.47;99102.77;1869226;75;28121;-80
2022/09/12 08:48:21;;;;;;;1.80;1.70;;;;;;;29.26;35.50;99100.30;1864829;75;28353;-79
2022/09/12 08:51:13;;;;;;;1.90;1.80;;;;;;;29.24;35.49;99096.17;1862024;74;28135;-80
2022/09/12 08:54:04;;;;;;;1.98;1.87;;;;;;;29.23;35.47;99094.50;1871055;75;28184;-80
2022/09/12 08:56:55;;;;;;;2.10;1.90;;;;;;;29.21;35.47;99096.19;1865992;75;28125;-80
2022/09/12 08:59:47;;;;;;;3.55;1.90;;;;;;;29.20;35.48;99095.06;1877253;75;28198;-79
2022/09/12 09:02:47;;;;;;;1.98;1.77;;;;;;;29.20;35.47;99093.69;1856781;77;28115;-81
2022/09/12 09:06:09;;;;;;;3.52;2.47;;;;;;;29.21;35.48;99095.34;1871126;75;28474;-81
2022/09/12 09:09:07;;;;;;;2.27;2.10;;;;;;;29.16;35.51;99090.66;1864641;75;28046;-81
2022/09/12 09:12:04;;;;;;;2.60;2.10;;;;;;;29.10;35.60;99079.91;1886861;75;28200;-80
2022/09/12 09:15:13;;;;;;;3.15;2.75;;;;;;;29.09;35.61;99082.40;1858734;75;28263;-80
2022/09/12 09:18:21;;;;;;;2.62;2.42;;;;;;;29.07;35.61;99075.78;1868462;75;28218;-78
2022/09/12 09:21:21;;;;;;;2.70;2.50;;;;;;;29.06;35.62;99077.43;1861631;75;28176;-78
2022/09/12 09:24:15;;;;;;;3.15;2.85;;;;;;;29.03;35.70;99076.64;1876462;75;28258;-79
2022/09/12 09:27:11;;;;;;;3.70;3.13;;;;;;;29.02;35.69;99066.69;1874694;75;28166;-80
2022/09/12 09:30:01;;;;;;;4.83;3.70;;;;;;;29.00;35.77;99074.45;1862439;75;28323;-75
2022/09/12 09:32:56;;;;;;;5.03;4.30;;;;;;;29.02;36.91;99065.30;1863418;75;28066;-78
2022/09/12 09:35:47;;;;;;;3.80;3.50;;;;;;;29.04;39.20;99061.69;1868329;75;28201;-78
2022/09/12 09:39:00;;;;;;;5.15;3.87;;;;;;;29.05;37.97;99063.35;1882983;75;28261;-78
2022/09/12 09:42:13;;;;;;;5.10;4.57;;;;;;;29.02;38.31;99064.75;1878724;75;28230;-78
2022/09/12 09:45:04;;;;;;;4.72;4.20;;;;;;;29.02;38.79;99057.00;1862382;75;28088;-79
2022/09/12 09:48:03;;;;;;;5.60;4.00;;;;;;;29.00;39.10;99056.47;1870773;74;28711;-76
2022/09/12 09:50:52;;;;;;;5.00;3.90;;;;;;;29.00;39.01;99050.94;1866487;75;28101;-79
2022/09/12 09:53:50;;;;;;;4.40;4.00;;;;;;;28.99;38.91;99053.42;1869191;75;28220;-79
2022/09/12 09:56:50;;;;;;;4.55;4.10;;;;;;;28.99;38.71;99048.72;1865959;75;28120;-76
2022/09/12 09:59:35;;;;;;;4.40;4.00;;;;;;;28.99;38.59;99051.48;1877690;74;28138;-76
2022/09/12 10:02:25;;;;;;;6.35;3.90;;;;;;;28.98;38.41;99053.17;1873724;75;28108;-78
2022/09/12 10:05:18;;;;;;;4.37;3.95;;;;;;;28.98;38.22;99049.85;1872991;75;28075;-76
2022/09/12 10:08:10;;;;;;;4.17;3.77;;;;;;;28.98;38.14;99039.34;1859130;75;28252;-77
2022/09/12 10:11:07;;;;;;;4.50;3.75;;;;;;;28.98;37.97;99039.34;1870948;74;28141;-77
2022/09/12 10:14:03;;;;;;;6.00;4.00;;;;;;;28.98;37.84;99031.05;1865203;75;28282;-78
2022/09/12 10:16:52;;;;;;;3.95;3.50;;;;;;;28.96;37.77;99027.75;1863646;75;28075;-76
2022/09/12 10:19:42;;;;;;;4.50;3.67;;;;;;;28.95;37.69;99031.61;1865552;75;28312;-77
2022/09/12 10:22:31;;;;;;;4.87;3.77;;;;;;;28.95;37.59;99024.15;1873617;75;28089;-80
2022/09/12 10:25:22;;;;;;;5.33;4.00;;;;;;;28.95;37.48;99016.41;1857027;75;28284;-83
2022/09/12 10:28:16;;;;;;;6.30;4.20;;;;;;;28.93;37.19;99013.94;1858395;75;28130;-81
2022/09/12 10:31:05;;;;;;;4.78;4.00;;;;;;;28.93;37.17;99009.79;1867056;74;28166;-79
2022/09/12 10:33:56;;;;;;;4.53;4.10;;;;;;;28.94;37.11;99010.04;1881856;74;28106;-79
2022/09/12 10:36:44;;;;;;;4.40;4.00;;;;;;;28.97;37.13;99008.64;1874655;75;28171;-82
2022/09/12 10:39:38;;;;;;;5.13;4.30;;;;;;;28.96;37.15;99006.45;1840743;75;28317;-81
2022/09/12 10:42:46;;;;;;;4.53;4.10;;;;;;;28.95;37.00;99002.58;1830420;77;28311;-82
2022/09/12 10:45:37;;;;;;;4.40;4.00;;;;;;;28.97;36.91;98996.20;1831157;76;28316;-75
2022/09/12 10:48:34;;;;;;;5.72;4.08;;;;;;;28.98;36.87;98995.09;1842443;77;28271;-78
2022/09/12 10:51:28;;;;;;;6.03;4.30;;;;;;;28.99;36.79;98996.18;1821857;77;28264;-78
2022/09/12 10:54:19;;;;;;;4.85;3.92;;;;;;;28.98;36.75;98995.09;1838259;76;28171;-79
2022/09/12 10:57:13;;;;;;;4.90;4.00;;;;;;;28.97;36.70;98985.14;1822526;77;28208;-78
2022/09/12 11:00:26;;;;;;;5.40;4.08;;;;;;;28.97;36.67;98980.98;1840631;77;28167;-78
2022/09/12 11:03:17;;;;;;;5.70;4.05;;;;;;;28.98;36.63;98983.48;1815152;77;28336;-78
2022/09/12 11:06:07;;;;;;;6.20;4.28;;;;;;;28.97;36.60;98979.05;1829005;76;28275;-78
2022/09/12 11:09:16;;;;;;;5.30;4.20;;;;;;;28.97;36.56;98973.52;1822423;76;28386;-79
2022/09/12 11:12:23;;;;;;;4.73;3.77;;;;;;;28.99;36.49;98968.52;1835118;77;28131;-78
2022/09/12 11:15:34;;;;;;;4.40;4.00;;;;;;;28.97;36.49;98968.55;1821344;76;28287;-78
2022/09/12 11:18:54;;;;;;;4.60;4.00;;;;;;;28.95;36.50;98968.02;1835862;77;28183;-79
2022/09/12 11:22:10;;;;;;;5.90;3.92;;;;;;;28.96;36.45;98976.03;1817922;76;36244;-78
2022/09/12 11:25:07;;;;;;;4.33;3.92;;;;;;;28.95;36.46;98961.09;1831032;76;28232;-78
2022/09/12 11:28:15;;;;;;;5.03;3.90;;;;;;;28.97;36.39;98957.48;1841997;77;28168;-77
2022/09/12 11:31:30;;;;;;;4.22;3.70;;;;;;;28.96;36.39;98958.06;1832003;77;28245;-80
2022/09/12 11:34:41;;;;;;;4.05;3.70;;;;;;;28.98;36.34;98953.06;1828368;77;28441;-79
2022/09/12 11:38:02;;;;;;;6.28;3.77;;;;;;;28.97;36.33;98950.57;1844374;76;28324;-79
2022/09/12 11:40:56;;;;;;;4.55;3.92;;;;;;;28.97;36.29;98951.95;1880093;74;30195;-80
2022/09/12 11:43:56;;;;;;;4.53;3.70;;;;;;;28.95;36.29;98944.51;1820723;77;28319;-79
2022/09/12 11:46:46;;;;;;;4.00;3.60;;;;;;;28.97;35.71;98938.95;1880827;75;28145;-79
2022/09/12 11:49:47;;;;;;;4.35;3.95;;;;;;;28.97;35.71;98938.95;1877164;74;28083;-78
2022/09/12 11:52:39;;;;;;;5.30;3.67;;;;;;;29.00;36.14;98938.39;1881410;74;28072;-78
2022/09/12 11:55:31;;;;;;;5.03;3.80;;;;;;;29.01;36.09;98934.48;1864969;75;28250;-79
2022/09/12 11:58:28;;;;;;;4.80;3.80;;;;;;;29.02;36.04;98930.62;1888524;74;28137;-78
2022/09/12 12:01:24;;;;;;;4.10;3.65;;;;;;;29.04;36.01;98933.09;1885355;74;28169;-78
2022/09/12 12:04:20;;;;;;;3.80;3.40;;;;;;;29.04;35.98;98921.47;1853656;75;28428;-79
2022/09/12 12:07:12;;;;;;;4.50;3.50;;;;;;;29.04;35.95;98915.94;1856804;76;28200;-78
2022/09/12 12:10:02;;;;;;;4.28;3.77;;;;;;;29.05;35.89;98917.60;1874980;75;28208;-89
2022/09/12 12:12:52;;;;;;;4.17;3.50;;;;;;;29.07;35.86;98913.98;1881259;75;28319;-81
2022/09/12 12:15:43;;;;;;;3.40;3.10;;;;;;;29.05;35.85;98913.45;1878812;75;28168;-76
2022/09/12 12:18:35;;;;;;;4.17;3.30;;;;;;;29.06;35.84;98912.88;1859017;76;28199;-83
2022/09/12 12:21:41;;;;;;;3.40;3.10;;;;;;;29.04;36.05;98905.43;1881612;75;28324;-83
2022/09/12 12:24:30;;;;;;;3.10;2.80;;;;;;;29.08;36.02;98907.91;1881705;75;28203;-88
2022/09/12 12:27:45;;;;;;;3.58;3.27;;;;;;;29.07;36.08;98909.00;1861837;75;38773;-80
2022/09/12 12:30:36;;;;;;;4.12;3.40;;;;;;;29.11;36.62;98906.75;1868829;74;28258;-77
2022/09/12 12:33:30;;;;;;;3.50;3.20;;;;;;;29.15;37.08;98895.94;1860814;75;28187;-77
2022/09/12 12:36:37;;;;;;;3.75;3.30;;;;;;;29.18;37.33;98891.21;1852531;76;28209;-81
2022/09/12 12:39:35;;;;;;;5.95;3.55;;;;;;;29.30;37.74;98895.80;1786637;79;28407;-85
2022/09/12 12:42:36;;;;;;;4.47;4.08;;;;;;;29.38;38.94;98889.63;1883271;74;28227;-82
2022/09/12 12:45:28;;;;;;;4.25;3.60;;;;;;;29.62;40.19;98889.05;1891743;75;28662;-79
2022/09/12 12:48:19;;;;;;;4.70;4.20;;;;;;;29.69;39.34;98883.98;1889527;75;28125;-80
2022/09/12 12:51:32;;;;;;;4.72;3.75;;;;;;;29.76;39.38;98877.55;1865159;76;28011;-76
2022/09/12 12:54:32;;;;;;;3.80;3.50;;;;;;;29.76;38.89;98881.70;1881994;74;28165;-79
2022/09/12 12:57:35;;;;;;;3.75;3.45;;;;;;;29.71;38.55;98878.97;1880189;74;28374;-78
2022/09/12 13:00:32;;;;;;;3.55;3.12;;;;;;;29.70;38.27;98869.58;1883111;75;28188;-78
2022/09/12 13:03:28;;;;;;;3.55;3.25;;;;;;;29.69;37.56;98870.14;1868693;75;28119;-77
2022/09/12 13:06:23;;;;;;;3.87;3.22;;;;;;;29.69;37.06;98863.22;1879588;74;28030;-77
2022/09/12 13:09:40;;;;;;;3.83;3.50;;;;;;;29.69;36.86;98850.75;1879823;75;28129;-78
2022/09/12 13:12:33;;;;;;;3.52;3.22;;;;;;;29.68;36.58;98842.20;1865062;75;28205;-78
2022/09/12 13:15:43;;;;;;;3.70;3.35;;;;;;;29.64;36.42;98833.41;1869896;75;28222;-87
2022/09/12 13:18:46;;;;;;;3.30;3.10;;;;;;;29.59;36.41;98834.30;1867194;75;28267;-78
2022/09/12 13:21:35;;;;;;;3.20;2.90;;;;;;;29.60;36.49;98829.56;1869478;75;28261;-84
2022/09/12 13:24:24;;;;;;;3.73;3.23;;;;;;;29.59;36.52;98827.37;1878059;74;28408;-79
2022/09/12 13:27:22;;;;;;;4.03;3.33;;;;;;;29.63;36.41;98822.06;1863546;75;28282;-79
2022/09/12 13:30:17;;;;;;;3.17;2.80;;;;;;;29.62;36.33;98824.00;1872360;75;28171;-78
2022/09/12 13:33:20;;;;;;;4.35;2.92;;;;;;;29.64;36.26;98819.56;1873175;75;28699;-80
2022/09/12 13:36:29;;;;;;;3.17;2.77;;;;;;;29.65;36.10;98826.18;1868802;75;28595;-77
2022/09/12 13:39:39;;;;;;;2.95;2.75;;;;;;;29.63;36.29;98817.36;1865104;75;28306;-81
2022/09/12 13:42:41;;;;;;;2.70;2.50;;;;;;;29.66;36.29;98811.78;1768442;80;28391;-76
2022/09/12 13:45:26;;;;;;;2.50;2.23;;;;;;;29.63;36.20;98804.89;1848952;76;28648;-81
2022/09/12 13:48:18;;;;;;;2.75;2.42;;;;;;;29.62;36.21;98806.00;1853232;76;28182;-81
2022/09/12 13:51:07;;;;;;;2.92;2.40;;;;;;;29.61;35.92;98800.22;1847531;76;28231;-79
2022/09/12 13:54:05;;;;;;;5.70;2.30;;;;;;;29.61;35.90;98800.22;1815333;76;28410;-81
2022/09/12 13:56:54;;;;;;;2.50;2.30;;;;;;;29.63;35.73;98793.00;1861215;75;28174;-80
2022/09/12 13:59:44;;;;;;;3.73;2.50;;;;;;;29.63;35.58;98791.05;1859665;75;28104;-80
2022/09/12 14:02:37;;;;;;;2.60;2.30;;;;;;;29.63;35.43;98788.84;1851241;76;28192;-81
2022/09/12 14:05:29;;;;;;;2.53;2.33;;;;;;;29.64;35.42;98787.15;1822783;77;28403;-79
2022/09/12 14:08:19;;;;;;;2.40;2.20;;;;;;;29.63;35.31;98783.31;1824653;76;28080;-79
2022/09/12 14:11:13;;;;;;;2.25;2.10;;;;;;;29.61;35.26;98777.25;1849908;76;28274;-79
2022/09/12 14:14:05;;;;;;;3.27;2.30;;;;;;;29.62;35.29;98777.49;1851436;75;28311;-80
2022/09/12 14:16:53;;;;;;;2.08;1.98;;;;;;;29.60;35.12;98775.03;1842886;75;28083;-79
2022/09/12 14:19:43;;;;;;;2.45;2.10;;;;;;;29.62;34.98;98771.95;1855763;76;28853;-83
2022/09/12 14:22:33;;;;;;;2.40;2.20;;;;;;;29.60;34.90;98769.50;1843559;76;39078;-78
2022/09/12 14:25:24;;;;;;;2.60;2.15;;;;;;;29.61;34.99;98766.17;1807302;77;28386;-80
2022/09/12 14:28:17;;;;;;;2.30;2.10;;;;;;;29.61;35.01;98764.24;1847590;76;28180;-78
2022/09/12 14:31:16;;;;;;;2.22;2.12;;;;;;;29.60;34.96;98766.73;1848866;75;28208;-81
2022/09/12 14:34:16;;;;;;;2.30;2.10;;;;;;;29.61;34.93;98759.26;1847571;75;28601;-81
2022/09/12 14:37:07;;;;;;;2.30;2.10;;;;;;;29.60;34.85;98766.73;1852315;76;28277;-81
2022/09/12 14:39:55;;;;;;;2.10;1.90;;;;;;;29.60;34.86;98761.75;1841104;76;28381;-81
2022/09/12 14:42:51;;;;;;;1.90;1.80;;;;;;;29.61;34.83;98760.09;1844950;76;28191;-80
2022/09/12 14:45:39;;;;;;;1.70;1.60;;;;;;;29.61;34.78;98755.94;1903419;74;28157;-81
2022/09/12 14:48:35;;;;;;;1.87;1.77;;;;;;;29.59;34.80;98755.97;1881896;75;28182;-81
2022/09/12 14:51:35;;;;;;;1.85;1.75;;;;;;;29.63;34.66;98761.99;1862727;76;28199;-80
2022/09/12 14:54:38;;;;;;;2.00;1.80;;;;;;;29.64;34.66;98756.70;1884496;75;28109;-82
2022/09/12 14:57:38;;;;;;;3.00;1.52;;;;;;;29.59;34.61;98747.11;1897952;74;28155;-81
2022/09/12 15:00:30;;;;;;;1.85;1.75;;;;;;;29.65;34.53;98756.14;1876253;75;28127;-81
2022/09/12 15:03:33;;;;;;;1.62;1.50;;;;;;;29.64;34.53;98752.55;1875842;75;28149;-81
2022/09/12 15:06:31;;;;;;;2.40;1.70;;;;;;;29.66;34.33;98747.56;1867824;75;28088;-81
2022/09/12 15:09:19;;;;;;;1.75;1.47;;;;;;;29.68;34.30;98747.25;1885754;75;28263;-81
2022/09/12 15:12:10;;;;;;;2.02;1.40;;;;;;;29.70;34.17;98736.14;1883719;75;28194;-81
2022/09/12 15:15:02;;;;;;;1.47;1.37;;;;;;;29.75;34.14;98739.39;1878654;75;28615;-81
2022/09/12 15:17:53;;;;;;;1.20;1.20;;;;;;;29.74;34.06;98731.64;1896588;75;28165;-81
2022/09/12 15:20:43;;;;;;;1.30;1.20;;;;;;;29.80;33.96;98730.46;1870923;75;28057;-82
2022/09/12 15:23:49;;;;;;;1.30;1.20;;;;;;;29.82;33.92;98728.80;1878787;75;28064;-81
2022/09/12 15:26:39;;;;;;;1.10;1.10;;;;;;;29.84;33.87;98735.69;1882684;75;28149;-81
2022/09/12 15:29:27;;;;;;;1.10;1.10;;;;;;;29.82;33.89;98738.48;1877023;75;28259;-81
2022/09/12 15:32:25;;;;;;;1.42;1.00;;;;;;;29.87;33.81;98728.14;1876959;75;28188;-82
2022/09/12 15:35:23;;;;;;;1.00;1.00;;;;;;;29.89;33.75;98728.69;1865565;75;28207;-77
2022/09/12 15:38:14;;;;;;;0.98;0.98;;;;;;;29.92;33.63;98730.83;1862957;75;28171;-79
2022/09/12 15:41:04;;;;;;;0.85;0.85;;;;;;;29.91;33.65;98719.52;1868767;75;31162;-81
2022/09/12 15:43:52;;;;;;;1.00;1.00;;;;;;;29.94;33.64;98716.12;1850818;75;28117;-78
2022/09/12 15:46:44;;;;;;;0.97;0.90;;;;;;;29.98;33.55;98718.56;1889920;75;28130;-79
2022/09/12 15:49:32;;;;;;;0.88;0.88;;;;;;;29.99;33.56;98712.47;1860287;76;28134;-77
2022/09/12 15:52:21;;;;;;;0.90;0.90;;;;;;;30.02;33.57;98712.67;1841677;75;28530;-77
2022/09/12 15:55:30;;;;;;;1.00;1.00;;;;;;;30.05;33.51;98710.70;1825711;76;28288;-77
2022/09/12 15:58:19;;;;;;;0.90;0.90;;;;;;;30.06;33.46;98715.64;1869447;75;28262;-80
2022/09/12 16:01:16;;;;;;;1.30;1.20;;;;;;;30.06;33.55;98701.23;1864000;75;28183;-77
2022/09/12 16:04:05;;;;;;;1.33;1.23;;;;;;;30.06;33.50;98697.64;1897777;74;28160;-76
2022/09/12 16:06:56;;;;;;;1.05;1.00;;;;;;;30.09;33.49;98695.66;1865619;76;28358;-82
2022/09/12 16:09:48;;;;;;;1.10;1.10;;;;;;;30.05;33.56;98696.84;1882201;75;28248;-83
2022/09/12 16:12:37;;;;;;;1.20;1.20;;;;;;;30.08;34.02;98695.42;1879303;75;28153;-85
2022/09/12 16:15:26;;;;;;;1.05;1.05;;;;;;;30.12;34.00;98694.23;1861851;75;28129;-82
2022/09/12 16:18:15;;;;;;;1.05;1.05;;;;;;;30.19;33.88;98696.05;1888473;75;28214;-78
2022/09/12 16:21:03;;;;;;;1.00;1.00;;;;;;;30.24;33.86;98691.80;1875693;75;28345;-77
2022/09/12 16:23:54;;;;;;;1.00;1.00;;;;;;;30.24;33.87;98689.03;1874183;75;28214;-80
2022/09/12 16:26:42;;;;;;;1.10;1.00;;;;;;;30.23;33.87;98687.38;1865849;75;28020;-80
2022/09/12 16:29:32;;;;;;;0.90;0.90;;;;;;;30.30;33.80;98686.42;1876404;75;28067;-78
2022/09/12 16:32:20;;;;;;;0.93;0.93;;;;;;;30.29;33.85;98687.56;1878718;75;28099;-78
2022/09/12 16:35:09;;;;;;;0.95;0.95;;;;;;;30.32;33.90;98680.83;1882563;74;28208;-80
2022/09/12 16:37:57;;;;;;;0.95;0.85;;;;;;;30.33;33.87;98674.77;1871864;74;28160;-81
2022/09/12 16:40:46;;;;;;;1.10;1.10;;;;;;;30.37;33.84;98679.95;1883115;74;28140;-80
2022/09/12 16:43:37;;;;;;;0.90;0.90;;;;;;;30.43;33.77;98675.97;1877414;75;28310;-78
2022/09/12 16:46:29;;;;;;;1.07;1.07;;;;;;;30.45;33.73;98675.09;1872746;75;28186;-80
2022/09/12 16:49:18;;;;;;;1.00;1.00;;;;;;;30.43;33.69;98670.43;1886168;75;28088;-80
2022/09/12 16:52:07;;;;;;;1.30;1.20;;;;;;;30.46;33.86;98675.34;1870491;75;28110;-78
2022/09/12 16:54:55;;;;;;;1.10;1.10;;;;;;;30.46;33.79;98674.78;1879571;74;28846;-77
2022/09/12 16:57:46;;;;;;;1.30;1.20;;;;;;;30.44;33.83;98674.27;1900496;74;28322;-79
2022/09/12 17:00:41;;;;;;;1.13;1.03;;;;;;;30.43;33.86;98678.19;1864314;76;28192;-79
2022/09/12 17:03:30;;;;;;;0.93;0.93;;;;;;;30.41;33.82;98681.00;1883700;75;28215;-77
2022/09/12 17:06:18;;;;;;;1.35;1.30;;;;;;;30.29;34.00;98669.55;1870687;75;28229;-79
2022/09/12 17:09:09;;;;;;;1.13;1.13;;;;;;;30.25;34.04;98675.42;1884924;75;28222;-77
2022/09/12 17:11:57;;;;;;;1.12;1.02;;;;;;;30.17;34.27;98683.06;1865328;75;28299;-77
2022/09/12 17:14:46;;;;;;;1.07;1.00;;;;;;;30.09;34.51;98685.97;1864051;75;28277;-78
2022/09/12 17:17:34;;;;;;;0.95;0.95;;;;;;;30.05;34.77;98694.07;1895659;75;28134;-77
2022/09/12 17:20:22;;;;;;;0.90;0.90;;;;;;;30.06;34.89;98698.47;1884410;75;28093;-81
2022/09/12 17:23:11;;;;;;;1.17;1.17;;;;;;;30.05;34.94;98698.78;1863215;75;28052;-84
2022/09/12 17:26:00;;;;;;;1.40;0.95;;;;;;;30.03;35.02;98699.66;1887891;74;28259;-93
2022/09/12 17:28:48;;;;;;;0.80;0.80;;;;;;;30.05;35.03;98707.92;1867558;75;28069;-85
2022/09/12 17:31:37;;;;;;;1.40;1.30;;;;;;;29.99;35.06;98706.34;1888084;75;28142;-79
2022/09/12 17:34:25;;;;;;;1.45;1.20;;;;;;;29.97;35.04;98703.61;1897730;75;28508;-78
2022/09/12 17:37:14;;;;;;;1.30;1.20;;;;;;;29.93;35.13;98708.95;1859956;76;30139;-78
2022/09/12 17:40:03;;;;;;;1.30;1.20;;;;;;;29.92;35.09;98708.67;1864227;75;28724;-79
2022/09/12 17:42:51;;;;;;;1.25;1.15;;;;;;;29.91;35.12;98715.91;1880789;75;28261;-78
2022/09/12 17:45:41;;;;;;;1.30;1.20;;;;;;;29.84;34.92;98712.15;1871276;74;28304;-78
2022/09/12 17:48:29;;;;;;;1.30;1.30;;;;;;;29.84;34.92;98712.15;1870595;75;28119;-78
2022/09/12 17:51:18;;;;;;;1.30;1.30;;;;;;;29.76;35.20;98700.36;1876067;75;28266;-78
2022/09/12 17:54:09;;;;;;;1.50;1.40;;;;;;;29.79;35.23;98712.22;1864953;76;28589;-79
2022/09/12 17:56:59;;;;;;;1.57;1.42;;;;;;;29.76;35.25;98717.52;1873525;74;28262;-78
2022/09/12 17:59:48;;;;;;;1.82;1.47;;;;;;;29.72;35.29;98718.67;1886329;75;28174;-79
2022/09/12 18:02:36;;;;;;;1.50;1.40;;;;;;;29.68;35.31;98718.19;1885363;75;28147;-79
2022/09/12 18:05:25;;;;;;;1.60;1.50;;;;;;;29.65;35.31;98720.99;1836272;76;28180;-78
2022/09/12 18:08:14;;;;;;;1.40;1.40;;;;;;;29.67;35.30;98723.45;1870263;75;28105;-79
2022/09/12 18:11:06;;;;;;;2.03;1.60;;;;;;;29.61;35.33;98732.41;1868124;75;28355;-78
2022/09/12 18:13:54;;;;;;;1.70;1.60;;;;;;;29.60;35.38;98737.67;1889305;75;28220;-78
2022/09/12 18:16:43;;;;;;;1.72;1.62;;;;;;;29.55;35.42;98741.89;1879104;75;28172;-79
2022/09/12 18:19:32;;;;;;;1.65;1.50;;;;;;;29.50;35.58;98747.48;1868739;75;28126;-75
2022/09/12 18:22:21;;;;;;;2.00;1.80;;;;;;;29.50;35.77;98752.23;1867452;75;28198;-78
2022/09/12 18:25:10;;;;;;;1.40;1.30;;;;;;;29.49;36.00;98755.55;1889801;75;28091;-75
2022/09/12 18:27:58;;;;;;;1.22;1.22;;;;;;;29.48;36.20;98751.12;1878219;75;28216;-73
2022/09/12 18:30:49;;;;;;;1.60;1.50;;;;;;;29.50;36.17;98746.69;1884720;74;28208;-75
2022/09/12 18:33:37;;;;;;;2.87;1.52;;;;;;;29.50;36.49;98746.69;1878998;75;28143;-74
2022/09/12 18:36:25;;;;;;;1.20;1.20;;;;;;;29.55;37.28;98754.34;1889078;75;28104;-73
2022/09/12 18:39:16;;;;;;;1.27;1.20;;;;;;;29.56;37.85;98751.85;1867810;75;28190;-73
2022/09/12 18:42:04;;;;;;;1.25;1.10;;;;;;;29.59;37.53;98758.19;1857334;76;28134;-73
2022/09/12 18:44:53;;;;;;;1.73;1.37;;;;;;;29.58;37.52;98759.84;1857580;75;28207;-74
2022/09/12 18:47:45;;;;;;;1.10;1.10;;;;;;;29.59;37.60;98762.89;1873703;75;28172;-73
2022/09/12 18:50:34;;;;;;;1.20;1.05;;;;;;;29.55;37.50;98761.27;1875302;74;28133;-75
2022/09/12 18:53:23;;;;;;;1.20;1.10;;;;;;;29.50;36.82;98760.53;1874157;74;28271;-74
2022/09/12 18:56:13;;;;;;;1.00;1.00;;;;;;;29.50;36.41;98766.06;1858574;74;38495;-75
2022/09/12 18:59:04;;;;;;;1.60;1.15;;;;;;;29.46;36.28;98772.73;1865273;74;28189;-76
2022/09/12 19:01:52;;;;;;;2.42;1.10;;;;;;;29.42;36.26;98777.23;1864848;75;28649;-75
2022/09/12 19:04:41;;;;;;;2.07;1.13;;;;;;;29.42;36.25;98773.08;1868367;75;28358;-75
2022/09/12 19:07:29;;;;;;;1.17;1.10;;;;;;;29.40;36.24;98773.94;1856360;77;28218;-75
2022/09/12 19:10:19;;;;;;;1.70;1.20;;;;;;;29.33;36.33;98770.71;1856588;77;28145;-74